createdAt,value
2019-03-31T00:02:03.050Z,101402.55
2019-03-31T00:06:06.614Z,101405.05
2019-03-31T00:10:10.327Z,101408.98
2019-03-31T00:14:13.995Z,101408.60
2019-03-31T00:18:17.659Z,101399.58
2019-03-31T00:22:21.276Z,101408.11
2019-03-31T00:26:25.003Z,101411.09
2019-03-31T00:30:28.805Z,101410.59
2019-03-31T00:34:32.423Z,101408.93
2019-03-31T00:38:36.051Z,101409.70
2019-03-31T00:42:39.648Z,101408.42
2019-03-31T00:46:43.362Z,101414.60
2019-03-31T00:50:47.084Z,101412.66
2019-03-31T00:54:50.903Z,101422.80
2019-03-31T00:58:54.489Z,101423.86
2019-03-31T01:02:59.257Z,101428.52
2019-03-31T01:07:03.086Z,101434.91
2019-03-31T01:11:09.768Z,101431.15
2019-03-31T01:15:15.996Z,101436.04
2019-03-31T01:19:20.166Z,101440.02
2019-03-31T01:23:23.780Z,101437.76
2019-03-31T01:27:27.802Z,101436.55
2019-03-31T01:31:31.567Z,101439.48
2019-03-31T01:35:35.747Z,101440.52
2019-03-31T01:39:39.363Z,101446.75
2019-03-31T01:43:43.076Z,101446.44
2019-03-31T01:47:46.793Z,101448.45
2019-03-31T01:51:50.433Z,101452.42
2019-03-31T01:55:54.224Z,101456.20
2019-03-31T01:59:57.960Z,101454.00
2019-03-31T02:04:01.582Z,101458.66
2019-03-31T02:08:06.505Z,101464.59
2019-03-31T02:12:10.114Z,101469.53
2019-03-31T02:16:13.829Z,101471.29
2019-03-31T02:20:17.562Z,101480.02
2019-03-31T02:24:21.161Z,101480.19
2019-03-31T02:28:24.703Z,101483.40
2019-03-31T02:32:28.390Z,101483.05
2019-03-31T02:36:32.007Z,101479.28
2019-03-31T02:40:35.821Z,101483.73
2019-03-31T02:44:39.436Z,101489.86
2019-03-31T02:48:43.048Z,101492.34
2019-03-31T02:52:46.662Z,101499.73
2019-03-31T02:56:50.972Z,101503.34
2019-03-31T03:00:54.913Z,101509.91
2019-03-31T03:05:17.859Z,101514.19
2019-03-31T03:09:07.160Z,101511.79
2019-03-31T03:13:12.413Z,101511.41
2019-03-31T03:17:16.125Z,101518.56
2019-03-31T03:21:23.673Z,101524.00
2019-03-31T03:25:25.303Z,101517.83
2019-03-31T03:29:28.856Z,101531.38
2019-03-31T03:33:32.426Z,101538.99
2019-03-31T03:37:36.041Z,101552.30
2019-03-31T03:41:39.654Z,101548.91
2019-03-31T03:45:43.369Z,101547.94
2019-03-31T03:49:46.982Z,101547.72
2019-03-31T03:53:50.602Z,101550.11
2019-03-31T03:57:54.212Z,101550.64
2019-03-31T04:01:57.823Z,101548.23
2019-03-31T04:06:01.540Z,101539.80
2019-03-31T04:10:08.226Z,101539.73
2019-03-31T04:14:11.849Z,101541.20
2019-03-31T04:18:15.452Z,101549.55
2019-03-31T04:22:19.069Z,101562.22
2019-03-31T04:26:22.784Z,101560.95
2019-03-31T04:30:26.400Z,101564.75
2019-03-31T04:34:29.951Z,101567.73
2019-03-31T04:38:33.631Z,101563.06
2019-03-31T04:42:37.243Z,101564.66
2019-03-31T04:46:40.835Z,101572.20
2019-03-31T04:50:44.776Z,101573.38
2019-03-31T04:54:48.394Z,101576.08
2019-03-31T04:58:52.004Z,101578.11
2019-03-31T05:02:55.558Z,101581.41
2019-03-31T05:07:00.258Z,101586.33
2019-03-31T05:11:04.454Z,101592.27
2019-03-31T05:15:08.200Z,101596.53
2019-03-31T05:19:11.813Z,101598.27
2019-03-31T05:23:15.430Z,101610.22
2019-03-31T05:27:19.042Z,101615.06
2019-03-31T05:31:22.655Z,101616.75
2019-03-31T05:35:27.187Z,101629.74
2019-03-31T05:39:30.908Z,101637.00
2019-03-31T05:43:34.625Z,101639.27
2019-03-31T05:47:38.237Z,101637.59
2019-03-31T05:51:41.952Z,101646.24
2019-03-31T05:55:45.671Z,101654.34
2019-03-31T05:59:49.280Z,101661.33
2019-03-31T06:03:53.024Z,101660.31
2019-03-31T06:07:56.613Z,101668.82
2019-03-31T06:12:00.336Z,101668.25
2019-03-31T06:16:04.045Z,101676.48
2019-03-31T06:20:07.686Z,101675.72
2019-03-31T06:24:11.235Z,101680.09
2019-03-31T06:28:14.885Z,101686.88
2019-03-31T06:32:18.500Z,101691.39
2019-03-31T06:36:22.118Z,101700.00
2019-03-31T06:40:25.658Z,101693.75
2019-03-31T06:44:29.244Z,101695.88
2019-03-31T06:48:32.851Z,101699.61
2019-03-31T06:52:36.467Z,101712.24
2019-03-31T06:56:40.086Z,101720.12
2019-03-31T07:00:43.638Z,101726.34
2019-03-31T07:05:00.268Z,101728.15
2019-03-31T07:08:52.768Z,101737.14
2019-03-31T07:12:59.631Z,101746.10
2019-03-31T07:17:01.735Z,101748.14
2019-03-31T07:21:05.272Z,101753.43
2019-03-31T07:25:10.683Z,101764.63
2019-03-31T07:29:14.319Z,101766.81
2019-03-31T07:33:17.932Z,101780.77
2019-03-31T07:37:21.544Z,101785.74
2019-03-31T07:41:25.476Z,101790.20
2019-03-31T07:45:29.181Z,101786.77
2019-03-31T07:49:32.899Z,101783.41
2019-03-31T07:53:36.511Z,101791.48
2019-03-31T07:57:40.234Z,101797.16
2019-03-31T08:01:43.833Z,101811.06
2019-03-31T08:05:47.392Z,101818.45
2019-03-31T08:09:50.965Z,101817.92
2019-03-31T08:13:55.445Z,101823.95
2019-03-31T08:17:59.628Z,101828.95
2019-03-31T08:22:03.251Z,101833.03
2019-03-31T08:26:06.854Z,101826.53
2019-03-31T08:30:13.158Z,101824.26
2019-03-31T08:34:16.720Z,101831.58
2019-03-31T08:38:20.367Z,101836.60
2019-03-31T08:42:24.026Z,101840.13
2019-03-31T08:46:27.630Z,101842.09
2019-03-31T08:50:33.288Z,101839.66
2019-03-31T08:54:36.692Z,101846.35
2019-03-31T08:58:40.278Z,101849.55
2019-03-31T09:02:43.841Z,101871.03
2019-03-31T09:06:47.406Z,101879.24
2019-03-31T09:10:51.113Z,101878.91
2019-03-31T09:14:54.727Z,101871.76
2019-03-31T09:18:58.442Z,101872.39
2019-03-31T09:23:02.080Z,101870.93
2019-03-31T09:27:05.776Z,101873.11
2019-03-31T09:31:09.494Z,101862.31
2019-03-31T09:35:16.379Z,101871.97
2019-03-31T09:39:19.919Z,101882.43
2019-03-31T09:43:23.507Z,101864.16
2019-03-31T09:47:27.223Z,101872.47
2019-03-31T09:51:30.768Z,101884.55
2019-03-31T09:55:34.556Z,101882.13
2019-03-31T09:59:38.172Z,101871.05
2019-03-31T10:03:41.826Z,101880.86
2019-03-31T10:07:46.649Z,101884.17
2019-03-31T10:11:50.359Z,101890.67
2019-03-31T10:15:54.038Z,101883.38
2019-03-31T10:19:57.668Z,101876.23
2019-03-31T10:24:01.505Z,101886.78
2019-03-31T10:28:05.145Z,101886.39
2019-03-31T10:32:08.985Z,101878.56
2019-03-31T10:36:12.955Z,101878.66
2019-03-31T10:40:16.869Z,101877.73
2019-03-31T10:44:20.482Z,101892.33
2019-03-31T10:48:25.740Z,101895.23
2019-03-31T10:52:29.351Z,101884.45
2019-03-31T10:56:33.070Z,101882.63
2019-03-31T11:00:38.175Z,101885.94
2019-03-31T11:04:41.834Z,101882.34
2019-03-31T11:08:45.445Z,101897.09
2019-03-31T11:12:50.813Z,101894.19
2019-03-31T11:16:54.614Z,101902.86
2019-03-31T11:20:59.975Z,101905.80
2019-03-31T11:25:03.893Z,101903.58
2019-03-31T11:29:07.608Z,101903.17
2019-03-31T11:33:11.460Z,101929.07
2019-03-31T11:37:15.277Z,101920.77
2019-03-31T11:41:19.696Z,101920.85
2019-03-31T11:45:23.609Z,101936.12
2019-03-31T11:49:27.439Z,101933.66
2019-03-31T11:53:31.361Z,101938.09
2019-03-31T11:57:34.957Z,101930.25
2019-03-31T12:01:38.575Z,101935.88
2019-03-31T12:05:42.297Z,101931.75
2019-03-31T12:09:45.898Z,101925.91
2019-03-31T12:13:49.517Z,101922.91
2019-03-31T12:17:53.332Z,101916.91
2019-03-31T12:21:57.918Z,101912.52
2019-03-31T12:26:01.484Z,101914.13
2019-03-31T12:30:08.270Z,101919.63
2019-03-31T12:34:11.881Z,101914.43
2019-03-31T12:38:15.429Z,101912.77
2019-03-31T12:42:19.114Z,101910.11
2019-03-31T12:46:22.940Z,101914.55
2019-03-31T12:50:26.544Z,101919.78
2019-03-31T12:54:30.367Z,101909.17
2019-03-31T12:58:34.182Z,101904.67
2019-03-31T13:02:37.898Z,101905.86
2019-03-31T13:06:41.718Z,101906.48
2019-03-31T13:10:45.331Z,101906.95
2019-03-31T13:14:49.056Z,101903.38
2019-03-31T13:18:53.174Z,101913.45
2019-03-31T13:22:56.891Z,101908.91
2019-03-31T13:27:00.473Z,101912.83
2019-03-31T13:31:04.008Z,101907.72
2019-03-31T13:35:08.640Z,101917.30
2019-03-31T13:39:12.580Z,101908.33
2019-03-31T13:43:16.191Z,101908.28
2019-03-31T13:47:19.906Z,101909.53
2019-03-31T13:51:24.681Z,101895.90
2019-03-31T13:55:28.482Z,101906.08
2019-03-31T13:59:32.080Z,101903.98
2019-03-31T14:03:35.639Z,101897.69
2019-03-31T14:07:39.311Z,101900.97
2019-03-31T14:11:43.055Z,101892.28
2019-03-31T14:15:46.639Z,101901.27
2019-03-31T14:19:50.256Z,101897.64
2019-03-31T14:23:53.824Z,101896.25
2019-03-31T14:27:57.486Z,101892.95
2019-03-31T14:32:01.209Z,101883.79
2019-03-31T14:36:04.816Z,101888.45
2019-03-31T14:40:08.505Z,101885.11
2019-03-31T14:44:12.249Z,101884.33
2019-03-31T14:48:15.885Z,101888.09
2019-03-31T14:52:27.190Z,101882.56
2019-03-31T14:56:24.973Z,101882.92
2019-03-31T15:00:28.692Z,101886.97
2019-03-31T15:04:32.368Z,101880.14
2019-03-31T15:08:36.080Z,101881.69
2019-03-31T15:12:40.642Z,101889.52
2019-03-31T15:16:44.391Z,101905.73
2019-03-31T15:20:48.492Z,101907.92
2019-03-31T15:24:52.071Z,101899.66
2019-03-31T15:28:56.113Z,101905.80
2019-03-31T15:32:59.657Z,101901.19
2019-03-31T15:37:03.330Z,101903.70
2019-03-31T15:41:20.347Z,101900.86
2019-03-31T15:45:12.606Z,101900.91
2019-03-31T15:49:16.192Z,101901.80
2019-03-31T15:53:20.037Z,101903.67
2019-03-31T15:57:23.812Z,101910.25
2019-03-31T16:01:28.326Z,101915.30
2019-03-31T16:05:32.259Z,101913.29
2019-03-31T16:09:35.825Z,101916.88
2019-03-31T16:13:39.396Z,101917.09
2019-03-31T16:17:43.001Z,101918.05
2019-03-31T16:21:48.032Z,101918.02
2019-03-31T16:25:53.353Z,101913.95
2019-03-31T16:29:56.966Z,101920.36
2019-03-31T16:34:00.543Z,101921.66
2019-03-31T16:38:04.299Z,101924.33
2019-03-31T16:42:07.909Z,101922.81
2019-03-31T16:46:13.571Z,101917.19
2019-03-31T16:50:17.288Z,101921.25
2019-03-31T16:54:20.904Z,101922.48
2019-03-31T16:58:24.517Z,101930.97
2019-03-31T17:02:28.128Z,101933.19
2019-03-31T17:06:31.844Z,101922.11
2019-03-31T17:10:35.461Z,101923.27
2019-03-31T17:14:39.078Z,101928.27
2019-03-31T17:18:42.691Z,101932.05
2019-03-31T17:22:46.759Z,101936.06
2019-03-31T17:26:50.530Z,101938.02
2019-03-31T17:30:54.145Z,101939.16
2019-03-31T17:34:57.721Z,101945.90
2019-03-31T17:39:01.374Z,101948.65
2019-03-31T17:43:04.987Z,101956.05
2019-03-31T17:47:08.597Z,101956.72
2019-03-31T17:51:12.214Z,101964.36
2019-03-31T17:55:16.760Z,101962.59
2019-03-31T17:59:21.814Z,101967.12
2019-03-31T18:03:25.411Z,101968.41
2019-03-31T18:07:29.029Z,101971.80
2019-03-31T18:11:32.642Z,101969.53
2019-03-31T18:15:36.256Z,101985.83
2019-03-31T18:19:39.826Z,101993.23
2019-03-31T18:23:43.349Z,102004.61
2019-03-31T18:27:47.205Z,102013.75
2019-03-31T18:31:51.017Z,102016.95
2019-03-31T18:35:55.895Z,102023.42
2019-03-31T18:40:00.037Z,102026.19
2019-03-31T18:44:04.549Z,102029.33
2019-03-31T18:48:08.843Z,102046.17
2019-03-31T18:52:12.839Z,102041.37
2019-03-31T18:56:34.407Z,102049.08
2019-03-31T19:00:45.609Z,102049.14
2019-03-31T19:04:53.656Z,102047.52
2019-03-31T19:08:59.180Z,102063.24
2019-03-31T19:13:20.984Z,102063.69
2019-03-31T19:17:38.808Z,102064.19
2019-03-31T19:22:00.490Z,102064.39
2019-03-31T19:26:21.441Z,102064.11
2019-03-31T19:30:36.349Z,102070.45
2019-03-31T19:34:51.097Z,102069.40
2019-03-31T19:38:56.479Z,102076.56
2019-03-31T19:43:17.289Z,102078.32
2019-03-31T19:47:23.022Z,102076.31
2019-03-31T19:51:29.094Z,102087.96
2019-03-31T19:55:51.388Z,102096.55
2019-03-31T19:59:57.259Z,102103.42
2019-03-31T20:04:20.026Z,102107.67
2019-03-31T20:08:43.885Z,102115.75
2019-03-31T20:12:55.258Z,102116.25
2019-03-31T20:17:00.831Z,102118.98
2019-03-31T20:21:12.044Z,102123.53
2019-03-31T20:25:20.501Z,102123.92
2019-03-31T20:29:28.804Z,102129.84
2019-03-31T20:33:36.997Z,102134.83
2019-03-31T20:37:45.723Z,102134.69
2019-03-31T20:41:59.878Z,102137.69
2019-03-31T20:46:04.629Z,102145.47
2019-03-31T20:50:08.628Z,102143.20
2019-03-31T20:54:12.170Z,102144.63
2019-03-31T20:58:15.972Z,102147.42
2019-03-31T21:02:19.808Z,102150.36
2019-03-31T21:06:23.711Z,102154.91
2019-03-31T21:10:27.445Z,102160.64
2019-03-31T21:14:31.137Z,102164.55
2019-03-31T21:18:34.867Z,102163.85
2019-03-31T21:22:38.514Z,102162.42
2019-03-31T21:26:42.190Z,102168.28
2019-03-31T21:30:46.825Z,102174.03
2019-03-31T21:34:50.433Z,102179.35
2019-03-31T21:38:54.055Z,102177.45
2019-03-31T21:42:57.622Z,102187.22
2019-03-31T21:47:01.175Z,102182.73
2019-03-31T21:51:04.895Z,102185.45
2019-03-31T21:55:09.731Z,102191.95
2019-03-31T21:59:13.344Z,102193.33
2019-03-31T22:03:16.973Z,102189.12
2019-03-31T22:07:20.582Z,102192.94
2019-03-31T22:11:24.187Z,102196.64
2019-03-31T22:15:27.734Z,102191.84
2019-03-31T22:19:31.413Z,102196.80
2019-03-31T22:23:36.804Z,102193.78
2019-03-31T22:27:40.383Z,102191.05
2019-03-31T22:31:43.999Z,102190.69
2019-03-31T22:36:06.244Z,102194.78
2019-03-31T22:40:10.044Z,102189.84
2019-03-31T22:44:13.678Z,102188.63
2019-03-31T22:48:17.401Z,102194.29
2019-03-31T22:52:21.008Z,102195.06
2019-03-31T22:56:24.624Z,102190.75
2019-03-31T23:00:28.339Z,102191.77
2019-03-31T23:04:31.957Z,102203.06
2019-03-31T23:08:35.509Z,102194.52
2019-03-31T23:12:40.106Z,102197.51
2019-03-31T23:16:43.923Z,102202.72
2019-03-31T23:20:47.531Z,102194.47
2019-03-31T23:24:51.146Z,102196.95
2019-03-31T23:28:54.764Z,102200.77
2019-03-31T23:32:58.376Z,102202.06
2019-03-31T23:37:01.988Z,102194.44
2019-03-31T23:41:05.705Z,102193.47
2019-03-31T23:45:09.420Z,102195.16
2019-03-31T23:49:12.979Z,102194.78
2019-03-31T23:53:16.545Z,102199.56
2019-03-31T23:57:21.795Z,102201.98
